Аэропорт
Сургут (USRR)

 USRR / SGC
ЗЦ Екатеринбург
Тюмень (USTR)
Тюмень (USTR)
 61.34370, 73.40180  / 200 ft

 USRR 212030Z 27004MPS 6000 OVC005 M01/M01 Q1022 R25/39//34 NOSIG RMK OBST OBSC QFE761
 TAF USRR 211055Z 2112/2212 27006G11MPS 3100 -SHSN BKN005 BKN020CB TEMPO 2112/2121 2000 SHSN FZRA BKN004 BKN015CB BECMG 2119/2121 17005MPS TEMPO 2121/2203 0800 FZFG VV002
АИП Таблицы, Данные, АИП_1605
показать схемы

2017 © VATRUS division